Terminal Aerodrome Forecast
Issued by NWS

Home | Current Version | Previous Version | Text Only | Print | Product List | Glossary On
Versions: 1 2 3 4 5 6 7 8 9 10 11 12 13 14
000
FTUS42 KGSP 182341 CCA
TAFHKY
TAF COR
KHKY 182341Z 1900/1924 20008KT P6SM BKN040 WS020/20030KT
     FM190300 21013G22KT P6SM VCSH OVC025 WS020/21035KT
      TEMPO 1904/1907 4SM -SHRA OVC007
     FM190800 28013G21KT P6SM BKN060
     FM191000 30008KT P6SM FEW250
     FM191400 32012G22KT P6SM FEW250=

USA.gov is the U.S. government's official web portal to all federal, state and local government web resources and services.